Time;durP1;ratioP1;P1;durP2;ratioP2;P2;SDS_P1;SDS_P2;PMS_P1;PMS_P2;Temp;Humidity;BMP_temperature;BMP_pressure;BME280_temperature;BME280_humidity;BME280_pressure;Samples;Min_cycle;Max_cycle;Signal;HPM_P1;HPM_P2
2022/01/07 00:00:05;;;;;;;50.17;11.00;;;;;;;-17.05;70.70;100996.19;4981839;28;20051;-79
2022/01/07 00:02:35;;;;;;;32.15;9.65;;;;;;;-16.87;71.09;100988.81;4981339;28;20109;-79
2022/01/07 00:05:07;;;;;;;43.72;11.98;;;;;;;-16.73;71.18;100986.97;4981688;28;20335;-79
2022/01/07 00:07:38;;;;;;;26.35;8.38;;;;;;;-16.55;71.55;100987.97;4981887;28;20047;-79
2022/01/07 00:10:10;;;;;;;53.88;13.95;;;;;;;-16.40;71.45;100980.25;4981866;28;20054;-79
2022/01/07 00:12:43;;;;;;;21.23;7.05;;;;;;;-16.24;71.55;100982.69;4981842;28;20058;-79
2022/01/07 00:15:14;;;;;;;21.50;7.25;;;;;;;-16.11;71.40;100981.56;4981888;28;20053;-79
2022/01/07 00:17:45;;;;;;;15.88;6.78;;;;;;;-16.10;71.33;100969.94;4983730;28;20061;-78
2022/01/07 00:20:16;;;;;;;5.53;3.80;;;;;;;-15.89;71.34;100974.56;4985896;28;20133;-79
2022/01/07 00:22:48;;;;;;;4.05;3.53;;;;;;;-16.00;71.42;100946.69;4992303;28;20050;-79
2022/01/07 00:25:21;;;;;;;27.08;8.52;;;;;;;-15.60;71.95;100978.16;4994986;28;20331;-78
2022/01/07 00:27:53;;;;;;;44.47;14.07;;;;;;;-15.31;72.08;100969.34;4984406;28;20083;-78
2022/01/07 00:30:24;;;;;;;26.35;9.27;;;;;;;-15.10;71.72;100964.63;4992630;28;20121;-78
2022/01/07 00:32:55;;;;;;;17.45;7.03;;;;;;;-14.88;71.60;100963.44;4993794;28;20314;-80
2022/01/07 00:35:26;;;;;;;14.68;6.40;;;;;;;-14.66;71.25;100955.44;4994916;28;20050;-80
2022/01/07 00:37:57;;;;;;;19.70;6.10;;;;;;;-14.45;71.18;100954.91;4984953;28;20059;-79
2022/01/07 00:40:28;;;;;;;7.78;4.60;;;;;;;-14.34;71.09;100936.72;4984884;28;20115;-78
2022/01/07 00:43:01;;;;;;;10.80;4.63;;;;;;;-14.04;70.75;100942.78;4984986;28;20046;-78
2022/01/07 00:45:32;;;;;;;6.28;3.45;;;;;;;-13.77;70.36;100948.56;4984992;28;20066;-77
2022/01/07 00:48:03;;;;;;;6.88;3.20;;;;;;;-13.76;70.34;100920.19;4984913;28;20051;-78
2022/01/07 00:50:34;;;;;;;5.45;3.75;;;;;;;-13.29;69.82;100941.16;4984827;28;20350;-77
2022/01/07 00:53:05;;;;;;;12.50;5.70;;;;;;;-13.10;69.47;100944.50;4984775;28;20097;-78
2022/01/07 00:55:36;;;;;;;16.27;9.43;;;;;;;-12.89;69.01;100939.59;4984744;28;20058;-79
2022/01/07 00:58:08;;;;;;;8.93;6.20;;;;;;;-12.68;68.83;100926.38;4984742;28;20086;-77
2022/01/07 01:00:39;;;;;;;6.75;3.92;;;;;;;-12.60;68.54;100915.31;4984653;28;20046;-78
2022/01/07 01:03:10;;;;;;;7.53;4.30;;;;;;;-12.27;68.46;100936.56;4984906;28;20094;-78
2022/01/07 01:05:44;;;;;;;10.20;5.45;;;;;;;-12.12;68.04;100926.03;4984738;28;20065;-76
2022/01/07 01:08:15;;;;;;;14.32;6.68;;;;;;;-12.02;67.61;100936.13;4984051;28;20049;-77
2022/01/07 01:10:46;;;;;;;9.48;5.18;;;;;;;-12.01;67.60;100927.78;4984010;28;20090;-78
2022/01/07 01:13:19;;;;;;;7.63;3.70;;;;;;;-11.98;67.27;100931.47;4984427;28;20346;-77
2022/01/07 01:15:50;;;;;;;5.20;3.08;;;;;;;-11.97;67.30;100922.25;4989346;28;20082;-76
2022/01/07 01:18:21;;;;;;;5.47;3.17;;;;;;;-11.90;67.25;100929.59;4994181;28;20059;-77
2022/01/07 01:20:51;;;;;;;4.80;3.30;;;;;;;-12.00;66.87;100911.94;4996459;28;20058;-78
2022/01/07 01:23:22;;;;;;;4.97;3.35;;;;;;;-11.83;66.80;100921.75;5003693;28;20096;-77
2022/01/07 01:25:53;;;;;;;10.07;4.05;;;;;;;-11.76;66.17;100908.88;4994008;28;20050;-77
2022/01/07 01:28:25;;;;;;;10.15;4.00;;;;;;;-11.67;65.53;100907.88;4993052;28;20106;-77
2022/01/07 01:30:56;;;;;;;10.27;3.88;;;;;;;-11.59;64.93;100909.38;4989412;28;20062;-77
2022/01/07 01:33:27;;;;;;;7.60;3.72;;;;;;;-11.49;64.75;100899.28;4992274;28;20054;-77
2022/01/07 01:35:58;;;;;;;6.57;3.72;;;;;;;-11.32;64.14;100893.97;4993366;28;20050;-77
2022/01/07 01:38:30;;;;;;;8.40;2.97;;;;;;;-11.19;62.97;100902.53;4993440;28;20050;-77
2022/01/07 01:41:01;;;;;;;6.70;3.13;;;;;;;-11.33;62.04;100856.91;4989886;28;20065;-78
2022/01/07 01:43:33;;;;;;;8.80;3.30;;;;;;;-11.00;61.48;100883.03;4991231;28;20049;-78
2022/01/07 01:46:04;;;;;;;3.70;2.85;;;;;;;-10.79;61.04;100886.38;4992554;28;20042;-77
2022/01/07 01:48:35;;;;;;;6.70;2.75;;;;;;;-10.64;60.34;100884.16;4993692;28;20043;-78
2022/01/07 01:51:06;;;;;;;3.15;2.60;;;;;;;-10.49;58.98;100880.28;4993133;28;20042;-77
2022/01/07 01:53:37;;;;;;;7.18;2.88;;;;;;;-10.45;57.10;100872.19;4991930;28;20224;-78
2022/01/07 01:56:08;;;;;;;2.80;2.20;;;;;;;-10.56;56.80;100842.69;4991714;28;20050;-78
2022/01/07 01:58:40;;;;;;;4.57;2.50;;;;;;;-10.76;55.75;100787.25;4992897;28;20054;-77
2022/01/07 02:01:11;;;;;;;4.28;2.30;;;;;;;-10.33;55.16;100862.16;4990569;28;20055;-78
2022/01/07 02:03:42;;;;;;;3.05;2.65;;;;;;;-10.34;54.01;100859.50;4992065;28;20101;-79
2022/01/07 02:06:13;;;;;;;10.98;3.63;;;;;;;-10.27;54.99;100852.47;4993005;28;20065;-79
2022/01/07 02:08:43;;;;;;;3.50;2.55;;;;;;;-10.16;54.47;100855.78;4992136;28;20118;-78
2022/01/07 02:11:14;;;;;;;4.07;2.65;;;;;;;-10.10;53.94;100851.22;4991174;28;20219;-78
2022/01/07 02:13:49;;;;;;;5.15;2.85;;;;;;;-10.23;53.85;100813.16;4991848;28;20060;-78
2022/01/07 02:16:25;;;;;;;4.05;2.50;;;;;;;-9.95;53.57;100845.56;4992072;28;20094;-78
2022/01/07 02:18:56;;;;;;;5.72;2.88;;;;;;;-10.03;52.96;100828.16;4984123;28;20054;-78
2022/01/07 02:21:29;;;;;;;4.80;2.30;;;;;;;-10.03;51.95;100838.28;4983061;28;20055;-78
2022/01/07 02:23:59;;;;;;;4.63;2.63;;;;;;;-10.00;52.87;100828.38;4983059;28;20055;-78
2022/01/07 02:26:33;;;;;;;5.72;2.50;;;;;;;-9.87;53.36;100834.34;4982684;28;20051;-79
2022/01/07 02:29:08;;;;;;;2.85;2.30;;;;;;;-9.86;52.06;100831.03;4987901;28;20232;-79
2022/01/07 02:31:39;;;;;;;3.05;2.17;;;;;;;-9.79;51.41;100829.06;4987642;28;20063;-79
2022/01/07 02:34:09;;;;;;;3.45;2.67;;;;;;;-9.74;51.24;100826.88;4990140;28;20085;-79
2022/01/07 02:36:42;;;;;;;4.93;2.05;;;;;;;-9.84;50.83;100814.34;4990778;28;20070;-80
2022/01/07 02:39:12;;;;;;;4.13;2.40;;;;;;;-9.77;51.34;100816.56;4990284;28;20054;-79
2022/01/07 02:41:43;;;;;;;2.53;2.33;;;;;;;-9.70;51.77;100813.72;4982672;28;20399;-80
2022/01/07 02:44:14;;;;;;;3.58;2.90;;;;;;;-9.71;51.09;100801.81;4990104;28;20074;-79
2022/01/07 02:46:45;;;;;;;4.00;2.80;;;;;;;-9.80;51.86;100765.75;4991279;28;20342;-80
2022/01/07 02:49:17;;;;;;;3.47;2.47;;;;;;;-9.60;51.85;100784.91;4990425;28;20138;-79
2022/01/07 02:51:50;;;;;;;9.02;3.72;;;;;;;-9.55;51.80;100793.72;4983183;28;20081;-80
2022/01/07 02:54:21;;;;;;;8.73;4.38;;;;;;;-9.55;51.49;100794.56;4991876;28;20058;-79
2022/01/07 02:56:51;;;;;;;4.00;2.70;;;;;;;-9.55;51.30;100789.53;4997968;28;20046;-79
2022/01/07 02:59:22;;;;;;;3.33;2.47;;;;;;;-9.70;51.52;100763.13;5001942;28;20269;-79
2022/01/07 03:01:53;;;;;;;4.93;2.70;;;;;;;-9.58;51.02;100775.78;5001917;28;20050;-79
2022/01/07 03:04:26;;;;;;;9.18;5.00;;;;;;;-9.61;51.96;100771.38;5001638;28;20054;-79
2022/01/07 03:06:58;;;;;;;11.40;3.53;;;;;;;-9.61;51.51;100758.75;5001752;28;20053;-80
2022/01/07 03:09:29;;;;;;;6.70;3.65;;;;;;;-9.51;51.53;100759.38;4984849;28;20054;-80
2022/01/07 03:12:00;;;;;;;5.55;3.05;;;;;;;-9.56;51.71;100737.19;4983057;28;20073;-76
2022/01/07 03:14:31;;;;;;;3.53;2.22;;;;;;;-9.46;50.54;100740.34;4982257;28;20077;-78
2022/01/07 03:17:01;;;;;;;4.88;2.72;;;;;;;-9.35;51.04;100747.06;4988823;28;20069;-78
2022/01/07 03:19:32;;;;;;;5.18;2.60;;;;;;;-9.32;50.62;100737.16;4989964;28;20082;-78
2022/01/07 03:22:05;;;;;;;3.03;2.55;;;;;;;-9.36;49.48;100740.22;4990556;28;20101;-78
2022/01/07 03:24:37;;;;;;;2.63;2.38;;;;;;;-9.46;49.79;100712.50;4990527;28;20053;-78
2022/01/07 03:27:09;;;;;;;2.10;1.90;;;;;;;-9.39;48.46;100724.81;4982341;28;20047;-78
2022/01/07 03:29:40;;;;;;;9.52;2.97;;;;;;;-9.36;49.37;100725.03;4982117;28;20059;-78
2022/01/07 03:32:11;;;;;;;3.72;2.20;;;;;;;-9.32;49.14;100711.84;4981739;28;20066;-78
2022/01/07 03:34:42;;;;;;;3.78;2.42;;;;;;;-9.31;49.51;100708.53;4981690;28;20361;-78
2022/01/07 03:37:15;;;;;;;6.00;2.95;;;;;;;-9.24;49.19;100700.59;4979765;28;20267;-78
2022/01/07 03:39:46;;;;;;;5.10;2.05;;;;;;;-9.19;49.17;100714.44;4973203;28;20054;-79
2022/01/07 03:42:16;;;;;;;3.90;2.70;;;;;;;-9.13;49.13;100704.75;4982199;28;20082;-78
2022/01/07 03:44:47;;;;;;;5.93;2.53;;;;;;;-9.07;49.15;100704.28;4973873;28;20363;-78
2022/01/07 03:47:18;;;;;;;5.07;2.47;;;;;;;-9.07;49.23;100698.34;4981956;28;20046;-78
2022/01/07 03:49:49;;;;;;;5.55;2.60;;;;;;;-9.04;49.36;100703.63;4982360;28;20047;-78
2022/01/07 03:52:21;;;;;;;5.90;2.95;;;;;;;-8.95;49.72;100704.25;4983572;28;20047;-78
2022/01/07 03:54:52;;;;;;;4.38;2.60;;;;;;;-8.80;50.02;100685.03;4985646;28;20065;-78
2022/01/07 03:57:22;;;;;;;4.10;2.60;;;;;;;-8.73;49.30;100692.28;4985348;28;20050;-77
2022/01/07 03:59:53;;;;;;;3.83;2.67;;;;;;;-8.82;49.62;100681.50;4985553;28;20069;-78
2022/01/07 04:02:24;;;;;;;4.65;2.42;;;;;;;-8.81;50.09;100660.50;4985172;28;20051;-78
2022/01/07 04:04:55;;;;;;;3.40;2.58;;;;;;;-8.60;50.15;100682.97;4985721;28;20078;-78
2022/01/07 04:07:30;;;;;;;4.75;2.60;;;;;;;-8.73;49.84;100668.59;4985586;28;20061;-77
2022/01/07 04:10:02;;;;;;;4.25;2.50;;;;;;;-8.71;48.96;100679.69;4985049;28;20102;-78
2022/01/07 04:12:32;;;;;;;5.18;2.95;;;;;;;-8.73;49.33;100672.00;4983384;28;20050;-78
2022/01/07 04:15:08;;;;;;;3.83;2.72;;;;;;;-8.73;49.65;100677.06;4985521;28;20093;-77
2022/01/07 04:17:40;;;;;;;7.18;3.00;;;;;;;-8.74;49.64;100670.22;4985569;28;20110;-78
2022/01/07 04:20:13;;;;;;;4.50;2.78;;;;;;;-8.68;49.67;100664.72;4985005;28;20054;-78
2022/01/07 04:22:46;;;;;;;4.35;2.53;;;;;;;-8.69;49.62;100662.94;4975064;28;20050;-80
2022/01/07 04:25:24;;;;;;;3.47;2.42;;;;;;;-9.12;49.31;100620.44;4983655;28;20051;-78
2022/01/07 04:28:15;;;;;;;3.50;2.45;;;;;;;-8.81;49.84;100655.44;4963157;28;20920;-79
2022/01/07 04:30:47;;;;;;;5.88;2.70;;;;;;;-8.84;50.52;100647.59;4972329;28;21359;-76
2022/01/07 04:33:25;;;;;;;7.15;2.72;;;;;;;-8.76;50.16;100659.16;4994318;28;20117;-80
2022/01/07 04:35:56;;;;;;;4.45;2.47;;;;;;;-8.77;49.96;100649.78;4993425;28;20111;-79
2022/01/07 04:38:28;;;;;;;3.58;2.60;;;;;;;-8.79;49.77;100651.31;4987643;28;20354;-80
2022/01/07 04:40:59;;;;;;;3.95;2.80;;;;;;;-8.80;50.16;100648.69;4995998;28;20053;-80
2022/01/07 04:43:30;;;;;;;7.82;2.78;;;;;;;-8.85;50.00;100640.78;4983263;28;20113;-79
2022/01/07 04:46:01;;;;;;;5.13;3.17;;;;;;;-8.73;49.97;100656.81;4978260;28;20043;-79
2022/01/07 04:48:32;;;;;;;6.30;2.90;;;;;;;-8.76;50.47;100654.09;4976776;28;20377;-80
2022/01/07 04:51:03;;;;;;;5.38;2.97;;;;;;;-8.78;50.39;100648.03;4975271;28;20050;-78
2022/01/07 04:53:35;;;;;;;4.75;2.70;;;;;;;-8.78;50.50;100658.16;4974294;28;20119;-77
2022/01/07 04:56:06;;;;;;;5.47;3.35;;;;;;;-8.83;50.81;100646.84;4971273;28;20050;-79
2022/01/07 04:58:37;;;;;;;4.85;3.03;;;;;;;-8.80;51.04;100643.63;4984875;28;20098;-80
2022/01/07 05:01:08;;;;;;;6.68;2.70;;;;;;;-8.83;50.58;100644.31;4985070;28;20298;-80
2022/01/07 05:03:39;;;;;;;5.70;3.05;;;;;;;-8.82;50.67;100651.13;4984422;28;20043;-80
2022/01/07 05:06:38;;;;;;;4.38;2.55;;;;;;;-8.78;50.85;100652.22;4984818;28;20051;-80
2022/01/07 05:09:04;;;;;;;4.28;3.00;;;;;;;-8.71;51.14;100652.72;4984395;28;20054;-81
2022/01/07 05:11:35;;;;;;;5.95;3.00;;;;;;;-8.74;51.14;100644.91;4967757;28;20331;-81
2022/01/07 05:14:06;;;;;;;6.35;2.92;;;;;;;-8.72;50.68;100658.56;4964990;28;20382;-79
2022/01/07 05:16:37;;;;;;;5.43;3.47;;;;;;;-8.83;50.80;100648.50;4964735;28;20350;-78
2022/01/07 05:19:07;;;;;;;7.38;4.30;;;;;;;-8.78;50.74;100658.16;4963561;28;20046;-78
2022/01/07 05:21:38;;;;;;;22.00;8.80;;;;;;;-8.86;50.62;100649.19;4964040;28;20093;-79
2022/01/07 05:24:11;;;;;;;15.20;5.88;;;;;;;-8.81;50.89;100657.97;4963650;28;20051;-79
2022/01/07 05:26:41;;;;;;;15.50;5.75;;;;;;;-8.83;51.05;100659.50;4963896;28;20065;-77
2022/01/07 05:29:13;;;;;;;16.73;7.03;;;;;;;-8.91;50.67;100665.69;4963799;28;20110;-78
2022/01/07 05:31:44;;;;;;;9.38;4.97;;;;;;;-9.01;50.67;100653.19;4963632;29;20267;-79
2022/01/07 05:34:14;;;;;;;8.65;4.63;;;;;;;-9.85;50.94;100514.25;4963636;28;20251;-80
2022/01/07 05:36:45;;;;;;;14.00;6.95;;;;;;;-9.01;51.11;100655.72;4963303;28;20047;-80
2022/01/07 05:39:18;;;;;;;6.57;3.90;;;;;;;-9.05;51.41;100661.38;4969978;28;20272;-79
2022/01/07 05:41:49;;;;;;;12.88;3.50;;;;;;;-9.08;51.65;100672.16;4968315;28;20117;-80
2022/01/07 05:44:21;;;;;;;16.70;7.95;;;;;;;-9.22;52.05;100658.53;4968138;28;20043;-80
2022/01/07 05:46:52;;;;;;;12.32;6.72;;;;;;;-9.20;52.28;100661.19;4964720;28;20235;-80
2022/01/07 05:49:23;;;;;;;10.63;5.75;;;;;;;-9.37;52.20;100652.44;4970289;28;20051;-80
2022/01/07 05:51:55;;;;;;;13.48;4.72;;;;;;;-9.26;52.40;100666.72;4970217;28;20061;-79
2022/01/07 05:54:27;;;;;;;13.95;8.00;;;;;;;-9.28;52.15;100665.72;4965494;28;20043;-78
2022/01/07 05:56:58;;;;;;;21.08;11.73;;;;;;;-9.34;52.21;100668.69;4963189;28;20115;-80
2022/01/07 05:59:29;;;;;;;13.25;6.82;;;;;;;-9.36;52.40;100666.84;4970282;28;20058;-79
2022/01/07 06:02:00;;;;;;;14.68;8.05;;;;;;;-9.40;52.85;100669.94;4970566;28;20051;-79
2022/01/07 06:04:30;;;;;;;10.00;5.78;;;;;;;-9.44;52.83;100665.44;4970624;28;20043;-79
2022/01/07 06:07:01;;;;;;;7.28;3.92;;;;;;;-9.56;52.61;100661.28;4965956;28;20078;-79
2022/01/07 06:09:34;;;;;;;9.00;4.50;;;;;;;-9.58;53.64;100665.34;4965437;28;20066;-80
2022/01/07 06:12:06;;;;;;;6.97;3.50;;;;;;;-9.72;53.41;100660.97;4966576;28;20086;-79
2022/01/07 06:14:36;;;;;;;14.00;5.03;;;;;;;-9.81;53.89;100667.91;4968809;28;20047;-79
2022/01/07 06:17:08;;;;;;;12.30;4.50;;;;;;;-9.94;54.34;100665.28;4964670;28;20039;-79
2022/01/07 06:19:39;;;;;;;7.78;3.97;;;;;;;-10.04;54.66;100679.78;4962819;28;20049;-79
2022/01/07 06:22:12;;;;;;;7.88;3.67;;;;;;;-10.28;55.00;100662.88;4962891;28;20111;-78
2022/01/07 06:24:45;;;;;;;7.93;3.80;;;;;;;-10.34;55.57;100672.53;4962915;28;20042;-78
2022/01/07 06:27:16;;;;;;;10.00;3.13;;;;;;;-10.46;56.45;100663.31;4963052;28;20085;-80
2022/01/07 06:29:47;;;;;;;10.75;3.55;;;;;;;-10.52;56.53;100683.03;4962729;28;20047;-79
2022/01/07 06:32:18;;;;;;;17.42;3.60;;;;;;;-10.64;56.41;100684.66;4962435;28;20054;-78
2022/01/07 06:34:49;;;;;;;7.95;3.75;;;;;;;-10.70;56.62;100679.16;4955242;28;20051;-78
2022/01/07 06:37:20;;;;;;;6.20;3.58;;;;;;;-10.87;56.99;100672.84;4962027;28;20051;-78
2022/01/07 06:39:53;;;;;;;14.32;3.17;;;;;;;-10.90;57.16;100683.59;4954269;29;20335;-77
2022/01/07 06:42:29;;;;;;;12.82;4.05;;;;;;;-10.99;57.59;100690.47;4961727;28;20405;-77
2022/01/07 06:45:00;;;;;;;10.70;4.53;;;;;;;-11.10;57.70;100691.31;4958196;29;20486;-77
2022/01/07 06:47:31;;;;;;;8.60;4.32;;;;;;;-11.20;58.13;100687.19;4960533;28;20217;-77
2022/01/07 06:50:02;;;;;;;8.20;3.70;;;;;;;-11.42;58.32;100679.59;4962207;28;20043;-77
2022/01/07 06:52:32;;;;;;;5.00;2.95;;;;;;;-11.38;59.18;100690.81;4955330;29;20301;-77
2022/01/07 06:55:06;;;;;;;6.57;3.67;;;;;;;-11.41;59.42;100696.50;4962153;28;20059;-77
2022/01/07 06:57:36;;;;;;;6.57;3.78;;;;;;;-11.45;59.94;100697.03;4959545;28;20390;-76
2022/01/07 07:00:09;;;;;;;6.75;4.35;;;;;;;-11.66;60.32;100671.00;4958032;29;20086;-78
2022/01/07 07:02:39;;;;;;;16.50;6.65;;;;;;;-11.60;60.64;100693.31;4944169;29;20051;-78
2022/01/07 07:05:11;;;;;;;16.77;7.22;;;;;;;-11.89;60.22;100694.44;4960949;28;20342;-78
2022/01/07 07:07:42;;;;;;;27.80;10.48;;;;;;;-12.17;60.59;100702.31;4958849;28;20131;-77
2022/01/07 07:10:14;;;;;;;41.30;18.00;;;;;;;-12.45;61.08;100713.44;4957070;28;20051;-78
2022/01/07 07:12:45;;;;;;;67.65;25.08;;;;;;;-12.62;62.89;100707.88;4916008;28;20057;-77
2022/01/07 07:15:16;;;;;;;56.03;23.45;;;;;;;-13.02;62.92;100695.28;4972492;28;20059;-77
2022/01/07 07:17:48;;;;;;;123.07;49.15;;;;;;;-13.24;63.60;100703.50;4976223;28;20050;-77
2022/01/07 07:20:19;;;;;;;65.32;25.33;;;;;;;-13.54;63.86;100711.88;4978793;28;20062;-80
2022/01/07 07:22:50;;;;;;;192.68;86.10;;;;;;;-13.83;64.51;100706.84;4980635;28;20086;-77
2022/01/07 07:25:23;;;;;;;135.88;54.05;;;;;;;-14.08;65.23;100719.75;4981398;28;20046;-78
2022/01/07 07:27:54;;;;;;;49.45;34.28;;;;;;;-14.37;65.76;100715.56;4986489;28;20106;-78
2022/01/07 07:30:32;;;;;;;36.88;17.25;;;;;;;-14.62;66.94;100711.63;4987313;28;20088;-78
2022/01/07 07:33:28;;;;;;;17.42;8.18;;;;;;;-14.87;67.86;100708.53;4986925;28;20046;-78
2022/01/07 07:38:43;;;;;;;17.30;7.03;;;;;;;-15.19;69.79;100713.09;4978089;28;20105;-78
2022/01/07 07:41:15;;;;;;;24.23;11.60;;;;;;;-15.30;70.19;100715.50;4987521;28;20047;-78
2022/01/07 07:43:47;;;;;;;17.77;7.68;;;;;;;-15.37;70.45;100718.19;4987124;28;20053;-78
2022/01/07 07:46:18;;;;;;;19.13;8.55;;;;;;;-15.39;71.11;100724.66;4985639;28;20061;-79
2022/01/07 07:48:51;;;;;;;45.53;15.55;;;;;;;-15.51;71.50;100705.97;4987464;28;20054;-78
2022/01/07 07:51:22;;;;;;;40.03;13.85;;;;;;;-15.43;71.74;100717.59;4987531;28;20062;-79
2022/01/07 07:53:53;;;;;;;30.70;12.82;;;;;;;-15.53;72.44;100704.94;4987641;28;20078;-79
2022/01/07 07:56:26;;;;;;;21.13;10.82;;;;;;;-15.49;73.62;100699.50;4987463;28;20113;-78
2022/01/07 07:58:58;;;;;;;15.18;8.13;;;;;;;-15.31;73.66;100720.38;4987497;28;20227;-78
2022/01/07 08:01:29;;;;;;;10.57;6.53;;;;;;;-15.17;73.47;100716.59;4987472;28;20081;-78
2022/01/07 08:04:01;;;;;;;9.05;5.90;;;;;;;-15.45;73.12;100678.97;4987340;28;20050;-78
2022/01/07 08:06:31;;;;;;;7.20;5.20;;;;;;;-15.22;73.43;100724.59;4987563;28;20074;-78
2022/01/07 08:09:03;;;;;;;6.60;4.78;;;;;;;-15.29;73.20;100716.38;4987467;28;20047;-78
2022/01/07 08:11:48;;;;;;;7.25;4.80;;;;;;;-15.32;73.36;100716.97;4987420;28;20086;-78
2022/01/07 08:17:08;;;;;;;47.75;18.67;;;;;;;-15.31;73.75;100723.75;4986945;28;20047;-78
2022/01/07 08:19:39;;;;;;;17.27;8.43;;;;;;;-15.34;73.74;100727.59;4987125;28;20051;-79
2022/01/07 08:22:10;;;;;;;28.67;12.43;;;;;;;-15.45;73.72;100721.56;4987114;28;20049;-79
2022/01/07 08:24:42;;;;;;;196.27;73.03;;;;;;;-15.46;73.82;100719.81;4987146;28;20093;-79
2022/01/07 08:27:14;;;;;;;37.63;18.45;;;;;;;-15.53;73.75;100727.50;4987241;28;20074;-77
2022/01/07 08:30:11;;;;;;;39.17;20.73;;;;;;;-15.61;73.74;100728.41;4986881;28;20305;-78
2022/01/07 08:35:30;;;;;;;12.70;6.13;;;;;;;-15.76;73.60;100726.25;4984725;28;20066;-78
2022/01/07 08:38:01;;;;;;;10.05;5.93;;;;;;;-15.80;73.82;100729.19;4984436;28;20331;-78
2022/01/07 08:40:32;;;;;;;15.85;6.60;;;;;;;-15.87;73.74;100729.38;4984024;28;20043;-78
2022/01/07 08:43:04;;;;;;;11.30;7.82;;;;;;;-15.90;73.79;100731.56;4984095;28;20510;-78
2022/01/07 08:45:35;;;;;;;12.00;5.20;;;;;;;-15.94;73.82;100730.41;4983779;28;20272;-78
2022/01/07 08:48:06;;;;;;;7.07;5.18;;;;;;;-16.02;73.96;100732.88;4984013;28;20049;-78
2022/01/07 08:50:37;;;;;;;5.80;3.90;;;;;;;-16.13;73.84;100732.75;4983805;28;20053;-78
2022/01/07 08:53:08;;;;;;;11.55;7.18;;;;;;;-16.20;73.92;100749.53;4984063;28;20047;-78
2022/01/07 08:55:39;;;;;;;19.35;7.40;;;;;;;-16.23;74.04;100725.09;4983778;28;20090;-78
2022/01/07 08:58:11;;;;;;;12.60;6.55;;;;;;;-16.15;74.14;100739.22;4983744;28;20076;-78
2022/01/07 09:00:42;;;;;;;18.83;9.35;;;;;;;-16.49;74.65;100685.06;4983504;28;20262;-78
2022/01/07 09:03:12;;;;;;;29.95;11.57;;;;;;;-16.15;74.57;100739.22;4983575;28;20061;-79
2022/01/07 09:05:43;;;;;;;36.15;11.75;;;;;;;-16.17;74.40;100744.81;4983551;28;20239;-77
2022/01/07 09:08:14;;;;;;;44.00;14.13;;;;;;;-16.21;74.42;100748.66;4983655;28;20061;-77
2022/01/07 09:10:45;;;;;;;37.33;12.15;;;;;;;-16.39;74.39;100722.75;4979389;28;20059;-79
2022/01/07 09:13:19;;;;;;;30.95;10.13;;;;;;;-16.31;74.86;100741.00;4983638;28;20043;-78
2022/01/07 09:15:50;;;;;;;27.08;8.45;;;;;;;-16.35;74.98;100731.41;4980257;28;20055;-78
2022/01/07 09:18:21;;;;;;;50.85;13.68;;;;;;;-16.37;74.88;100745.38;4983602;28;20085;-78
2022/01/07 09:20:52;;;;;;;71.88;19.00;;;;;;;-16.39;74.63;100737.75;4987808;28;20455;-78
2022/01/07 09:23:23;;;;;;;34.65;11.85;;;;;;;-16.33;74.85;100737.44;4991148;28;20042;-78
2022/01/07 09:25:54;;;;;;;30.30;10.23;;;;;;;-16.40;75.00;100725.09;4985603;28;20047;-78
2022/01/07 09:28:26;;;;;;;21.15;8.73;;;;;;;-16.44;75.27;100733.03;4982536;28;20050;-78
2022/01/07 09:30:57;;;;;;;16.45;6.80;;;;;;;-16.42;75.38;100736.56;4993474;28;20053;-77
2022/01/07 09:33:28;;;;;;;12.13;6.38;;;;;;;-16.39;75.52;100732.75;4983740;28;20259;-78
2022/01/07 09:36:18;;;;;;;5.50;3.35;;;;;;;-16.43;75.67;100737.31;4963964;28;20047;-78
2022/01/07 09:38:49;;;;;;;11.07;5.05;;;;;;;-16.46;76.26;100725.38;4978845;28;20063;-78
2022/01/07 09:41:20;;;;;;;6.00;4.00;;;;;;;-16.44;75.86;100733.03;4983097;28;20406;-78
2022/01/07 09:43:53;;;;;;;7.25;4.15;;;;;;;-16.38;76.02;100723.63;4982894;28;20047;-77
2022/01/07 09:46:24;;;;;;;9.63;3.45;;;;;;;-16.36;76.08;100703.00;4983004;28;20335;-77
2022/01/07 09:48:55;;;;;;;5.85;3.92;;;;;;;-16.36;75.68;100707.16;4982446;28;20109;-77
2022/01/07 09:51:27;;;;;;;5.97;3.58;;;;;;;-16.25;75.92;100719.06;4982263;28;20059;-77
2022/01/07 09:54:00;;;;;;;5.82;3.83;;;;;;;-16.25;75.70;100715.69;4982515;28;20341;-77
2022/01/07 09:56:30;;;;;;;4.13;3.53;;;;;;;-16.46;75.42;100684.47;4982694;28;20386;-78
2022/01/07 09:59:05;;;;;;;7.07;3.90;;;;;;;-16.34;75.68;100715.69;4982405;28;20361;-78
2022/01/07 10:01:56;;;;;;;6.03;3.53;;;;;;;-16.41;75.54;100713.31;4988554;28;20055;-78
2022/01/07 10:04:29;;;;;;;6.85;4.00;;;;;;;-16.38;75.76;100717.00;4981685;28;20062;-78
2022/01/07 10:07:19;;;;;;;4.72;3.67;;;;;;;-16.35;75.60;100708.91;4982255;28;20102;-78
2022/01/07 10:10:02;;;;;;;5.47;3.38;;;;;;;-16.42;75.80;100706.53;4982425;28;20054;-78
2022/01/07 10:12:49;;;;;;;3.97;3.65;;;;;;;-16.64;75.60;100689.47;4982237;28;20323;-78
2022/01/07 10:15:23;;;;;;;6.63;3.10;;;;;;;-16.88;75.48;100677.09;4982490;28;20046;-78
2022/01/07 10:17:59;;;;;;;6.97;2.78;;;;;;;-16.76;75.57;100708.28;4982352;28;20086;-78
2022/01/07 10:20:32;;;;;;;5.53;4.28;;;;;;;-16.74;75.88;100706.81;4981176;28;20049;-78
2022/01/07 10:23:05;;;;;;;9.88;4.72;;;;;;;-16.50;76.42;100702.41;4971195;28;20046;-78
2022/01/07 10:25:38;;;;;;;10.00;5.20;;;;;;;-16.88;76.05;100637.09;4982145;28;20064;-78
2022/01/07 10:28:11;;;;;;;10.23;5.70;;;;;;;-16.52;75.78;100699.78;4972138;28;20058;-78
2022/01/07 10:30:46;;;;;;;25.40;11.50;;;;;;;-16.55;75.69;100705.34;4977032;28;20122;-78
2022/01/07 10:33:20;;;;;;;130.77;46.58;;;;;;;-16.75;75.38;100680.03;4980620;28;20047;-77
2022/01/07 10:35:53;;;;;;;177.65;61.80;;;;;;;-16.80;75.18;100691.22;4972975;28;20110;-77
2022/01/07 10:38:26;;;;;;;197.90;70.05;;;;;;;-16.81;75.89;100691.97;4980816;28;20058;-77
2022/01/07 10:40:59;;;;;;;349.90;116.97;;;;;;;-16.81;75.94;100694.47;4980696;28;20051;-77
2022/01/07 10:43:34;;;;;;;279.25;98.57;;;;;;;-16.92;75.47;100685.03;4980620;28;20047;-77
2022/01/07 10:46:19;;;;;;;87.97;35.78;;;;;;;-17.02;75.45;100666.66;4980982;28;20055;-77
2022/01/07 10:48:53;;;;;;;15.90;8.52;;;;;;;-16.88;75.48;100707.09;4980675;28;20093;-77
2022/01/07 10:51:25;;;;;;;10.68;6.07;;;;;;;-17.60;75.44;100590.94;4981248;28;20227;-77
2022/01/07 10:54:00;;;;;;;10.18;5.47;;;;;;;-16.76;75.80;100698.25;4981036;28;20117;-77
2022/01/07 10:56:36;;;;;;;24.60;10.48;;;;;;;-16.75;75.65;100705.03;4979403;28;20279;-77
2022/01/07 10:59:08;;;;;;;15.90;6.18;;;;;;;-17.17;75.03;100652.59;4983159;28;20059;-77
2022/01/07 11:01:43;;;;;;;8.75;6.32;;;;;;;-16.88;75.37;100702.09;4984554;28;20042;-78
2022/01/07 11:04:17;;;;;;;4.68;3.53;;;;;;;-16.92;75.69;100700.00;4975998;28;20346;-78
2022/01/07 11:06:49;;;;;;;10.02;5.00;;;;;;;-16.98;75.80;100691.19;4988668;28;20449;-77
2022/01/07 11:09:20;;;;;;;6.10;5.25;;;;;;;-16.97;75.60;100702.06;4978041;28;20054;-78
2022/01/07 11:11:53;;;;;;;7.53;4.80;;;;;;;-17.00;75.67;100702.63;4981226;28;20047;-77
2022/01/07 11:14:26;;;;;;;4.95;3.92;;;;;;;-17.32;75.67;100641.09;4981176;28;20042;-78
2022/01/07 11:17:04;;;;;;;7.85;5.88;;;;;;;-17.04;75.71;100700.59;4980934;28;20042;-77
2022/01/07 11:19:38;;;;;;;5.13;4.65;;;;;;;-17.04;76.03;100693.09;4979333;28;20045;-78
2022/01/07 11:22:11;;;;;;;14.38;7.97;;;;;;;-17.06;76.03;100697.03;4979372;28;20105;-77
2022/01/07 11:24:44;;;;;;;13.40;6.63;;;;;;;-17.11;76.14;100717.31;4979866;28;20342;-77
2022/01/07 11:27:16;;;;;;;10.00;5.65;;;;;;;-17.09;76.32;100706.75;4980344;28;20097;-77
2022/01/07 11:29:56;;;;;;;7.55;4.25;;;;;;;-17.12;76.08;100681.47;4980854;28;20046;-77
2022/01/07 11:32:38;;;;;;;;;;;;;;;-17.13;75.78;100709.66;4962993;28;20119;-78
2022/01/07 11:35:47;;;;;;;6.57;4.22;;;;;;;-17.30;76.03;100704.59;4964499;28;19941;-78
2022/01/07 11:38:33;;;;;;;12.82;5.95;;;;;;;-17.46;75.77;100703.06;4964640;28;20059;-77
2022/01/07 11:41:09;;;;;;;11.60;6.05;;;;;;;-17.53;75.90;100705.66;4972559;28;20078;-78
2022/01/07 11:43:42;;;;;;;16.55;7.57;;;;;;;-17.51;76.10;100704.22;4966917;28;20047;-78
2022/01/07 11:46:30;;;;;;;10.93;7.72;;;;;;;-17.54;76.40;100698.91;4964156;28;20401;-78